createdAt,value
2019-02-20T00:01:21.584Z,0.90
2019-02-20T00:03:50.460Z,0.90
2019-02-20T00:06:19.331Z,0.90
2019-02-20T00:08:48.462Z,0.90
2019-02-20T00:11:17.252Z,0.90
2019-02-20T00:13:46.137Z,0.90
2019-02-20T00:16:14.997Z,0.90
2019-02-20T00:18:43.797Z,0.90
2019-02-20T00:21:12.596Z,0.80
2019-02-20T00:23:41.402Z,0.80
2019-02-20T00:26:10.259Z,0.80
2019-02-20T00:28:39.064Z,0.80
2019-02-20T00:31:07.933Z,0.80
2019-02-20T00:33:36.743Z,0.80
2019-02-20T00:36:05.541Z,0.90
2019-02-20T00:38:34.349Z,0.90
2019-02-20T00:41:03.455Z,1.00
2019-02-20T00:43:32.439Z,1.00
2019-02-20T00:46:12.820Z,1.00
2019-02-20T00:49:04.818Z,0.90
2019-02-20T00:51:51.383Z,0.80
2019-02-20T00:54:20.264Z,0.90
2019-02-20T00:56:49.320Z,0.90
2019-02-20T00:59:18.106Z,0.90
2019-02-20T01:01:47.143Z,0.90
2019-02-20T01:04:16.086Z,1.90
2019-02-20T01:06:45.261Z,1.20
2019-02-20T01:09:14.297Z,1.30
2019-02-20T01:11:43.132Z,1.30
2019-02-20T01:14:11.995Z,1.40
2019-02-20T01:16:41.050Z,1.40
2019-02-20T01:19:10.118Z,1.50
2019-02-20T01:21:38.991Z,1.40
2019-02-20T01:24:07.792Z,1.40
2019-02-20T01:26:36.590Z,1.40
2019-02-20T01:29:05.520Z,1.30
2019-02-20T01:31:34.393Z,1.30
2019-02-20T01:34:03.287Z,1.30
2019-02-20T01:36:32.342Z,1.20
2019-02-20T01:39:01.406Z,1.10
2019-02-20T01:41:30.215Z,1.10
2019-02-20T01:43:59.086Z,1.10
2019-02-20T01:46:28.153Z,1.20
2019-02-20T01:48:57.077Z,1.20
2019-02-20T01:51:25.921Z,1.20
2019-02-20T01:53:54.735Z,1.20
2019-02-20T01:56:23.534Z,1.20
2019-02-20T01:58:52.578Z,1.10
2019-02-20T02:01:21.728Z,1.10
2019-02-20T02:03:50.524Z,1.10
2019-02-20T02:06:19.597Z,1.00
2019-02-20T02:08:48.485Z,1.00
2019-02-20T02:11:17.306Z,1.00
2019-02-20T02:13:46.097Z,0.90
2019-02-20T02:16:14.899Z,0.90
2019-02-20T02:18:44.190Z,0.80
2019-02-20T02:21:13.070Z,0.70
2019-02-20T02:23:41.870Z,0.70
2019-02-20T02:26:11.252Z,0.60
2019-02-20T02:28:40.100Z,0.60
2019-02-20T02:31:08.908Z,0.60
2019-02-20T02:33:37.693Z,0.50
2019-02-20T02:36:06.502Z,0.50
2019-02-20T02:38:35.619Z,0.50
2019-02-20T02:41:04.410Z,0.50
2019-02-20T02:43:33.207Z,0.50
2019-02-20T02:46:02.264Z,0.50
2019-02-20T02:48:31.052Z,0.40
2019-02-20T02:50:59.862Z,0.40
2019-02-20T02:53:30.889Z,0.50
2019-02-20T02:55:59.165Z,0.50
2019-02-20T02:58:28.221Z,0.50
2019-02-20T03:00:57.026Z,0.50
2019-02-20T03:03:26.077Z,0.60
2019-02-20T03:05:54.886Z,0.60
2019-02-20T03:08:23.698Z,0.70
2019-02-20T03:10:52.509Z,0.70
2019-02-20T03:13:21.383Z,0.80
2019-02-20T03:15:50.182Z,0.90
2019-02-20T03:18:19.061Z,0.90
2019-02-20T03:20:47.933Z,1.00
2019-02-20T03:23:16.985Z,1.00
2019-02-20T03:25:45.765Z,1.00
2019-02-20T03:28:14.824Z,1.00
2019-02-20T03:30:43.816Z,0.80
2019-02-20T03:33:13.040Z,0.70
2019-02-20T03:35:41.917Z,0.60
2019-02-20T03:38:10.722Z,0.50
2019-02-20T03:40:39.514Z,0.40
2019-02-20T03:43:08.301Z,0.20
2019-02-20T03:45:37.096Z,0.20
2019-02-20T03:48:05.894Z,0.10
2019-02-20T03:50:34.947Z,0.10
2019-02-20T03:53:03.740Z,0.10
2019-02-20T03:55:32.645Z,0.10
2019-02-20T03:58:01.491Z,0.20
2019-02-20T04:00:30.362Z,0.20
2019-02-20T04:02:59.474Z,0.30
2019-02-20T04:05:28.522Z,0.40
2019-02-20T04:07:57.411Z,0.50
2019-02-20T04:10:26.470Z,0.60
2019-02-20T04:12:55.348Z,0.70
2019-02-20T04:15:24.162Z,0.80
2019-02-20T04:17:53.219Z,0.90
2019-02-20T04:20:22.032Z,1.00
2019-02-20T04:22:50.832Z,1.00
2019-02-20T04:25:19.621Z,1.10
2019-02-20T04:27:48.438Z,1.10
2019-02-20T04:30:17.365Z,1.10
2019-02-20T04:32:46.175Z,1.00
2019-02-20T04:35:15.053Z,1.00
2019-02-20T04:37:44.109Z,0.90
2019-02-20T04:40:12.904Z,0.90
2019-02-20T04:42:41.952Z,0.80
2019-02-20T04:45:10.892Z,0.90
2019-02-20T04:47:39.727Z,0.90
2019-02-20T04:50:09.083Z,0.80
2019-02-20T04:52:37.899Z,0.60
2019-02-20T04:55:07.401Z,0.50
2019-02-20T04:57:36.227Z,0.40
2019-02-20T05:00:06.686Z,0.30
2019-02-20T05:02:35.614Z,0.30
2019-02-20T05:05:04.941Z,0.20
2019-02-20T05:07:33.830Z,0.20
2019-02-20T05:10:02.822Z,0.30
2019-02-20T05:12:31.706Z,0.30
2019-02-20T05:15:01.070Z,0.40
2019-02-20T05:17:30.036Z,0.40
2019-02-20T05:19:59.149Z,0.50
2019-02-20T05:22:27.947Z,0.50
2019-02-20T05:24:56.991Z,0.50
2019-02-20T05:27:26.293Z,0.60
2019-02-20T05:29:55.343Z,0.60
2019-02-20T05:32:24.212Z,0.60
2019-02-20T05:34:53.079Z,0.60
2019-02-20T05:37:21.943Z,0.70
2019-02-20T05:39:50.741Z,0.70
2019-02-20T05:42:19.796Z,0.70
2019-02-20T05:44:48.584Z,0.80
2019-02-20T05:47:17.645Z,0.80
2019-02-20T05:49:46.446Z,0.80
2019-02-20T05:52:15.917Z,0.80
2019-02-20T05:54:44.933Z,0.80
2019-02-20T05:57:13.739Z,0.80
2019-02-20T05:59:42.798Z,0.70
2019-02-20T06:02:11.926Z,0.70
2019-02-20T06:04:40.714Z,0.60
2019-02-20T06:07:09.503Z,0.60
2019-02-20T06:09:38.310Z,0.60
2019-02-20T06:12:07.105Z,0.50
2019-02-20T06:14:35.914Z,0.40
2019-02-20T06:17:04.704Z,0.40
2019-02-20T06:19:33.546Z,0.40
2019-02-20T06:22:02.359Z,0.40
2019-02-20T06:24:31.170Z,0.40
2019-02-20T06:27:00.243Z,0.30
2019-02-20T06:29:29.291Z,0.30
2019-02-20T06:31:58.175Z,0.30
2019-02-20T06:34:27.555Z,0.20
2019-02-20T06:36:56.366Z,0.20
2019-02-20T06:39:25.152Z,0.30
2019-02-20T06:41:53.953Z,0.30
2019-02-20T06:44:23.479Z,0.30
2019-02-20T06:46:52.591Z,0.30
2019-02-20T06:49:21.469Z,0.30
2019-02-20T06:51:50.654Z,0.30
2019-02-20T06:54:19.860Z,0.30
2019-02-20T06:56:50.208Z,0.30
2019-02-20T06:59:19.502Z,0.40
2019-02-20T07:01:48.579Z,0.40
2019-02-20T07:04:17.558Z,0.40
2019-02-20T07:07:30.621Z,0.40
2019-02-20T07:10:46.205Z,0.40
2019-02-20T07:13:51.738Z,0.40
2019-02-20T07:17:00.528Z,0.40
2019-02-20T07:19:50.246Z,0.40
2019-02-20T07:23:11.693Z,0.40
2019-02-20T07:26:13.843Z,0.40
2019-02-20T07:29:13.458Z,0.40
2019-02-20T07:31:42.302Z,0.50
2019-02-20T07:34:11.121Z,0.60
2019-02-20T07:36:39.992Z,0.60
2019-02-20T07:39:08.950Z,0.70
2019-02-20T07:41:37.758Z,1.00
2019-02-20T07:44:06.563Z,1.10
2019-02-20T07:46:35.457Z,1.30
2019-02-20T07:49:04.303Z,1.60
2019-02-20T07:51:33.125Z,1.80
2019-02-20T07:54:02.029Z,2.10
2019-02-20T07:56:30.845Z,2.30
2019-02-20T07:58:59.654Z,2.40
2019-02-20T08:01:28.520Z,2.40
2019-02-20T08:03:57.612Z,2.50
2019-02-20T08:06:26.437Z,2.60
2019-02-20T08:08:55.353Z,2.70
2019-02-20T08:11:24.325Z,2.90
2019-02-20T08:13:53.159Z,2.90
2019-02-20T08:16:22.254Z,3.00
2019-02-20T08:18:51.145Z,3.20
2019-02-20T08:21:20.082Z,3.30
2019-02-20T08:23:49.251Z,3.20
2019-02-20T08:26:18.137Z,3.10
2019-02-20T08:28:47.382Z,3.00
2019-02-20T08:31:16.310Z,3.00
2019-02-20T08:33:45.538Z,3.20
2019-02-20T08:36:14.395Z,3.30
2019-02-20T08:38:43.548Z,3.30
2019-02-20T08:41:12.599Z,3.40
2019-02-20T08:43:44.005Z,3.50
2019-02-20T08:46:12.891Z,3.50
2019-02-20T08:48:41.728Z,3.60
2019-02-20T08:51:10.977Z,3.70
2019-02-20T08:53:40.030Z,3.90
2019-02-20T08:56:09.001Z,4.20
2019-02-20T08:58:37.818Z,4.40
2019-02-20T09:01:06.770Z,4.70
2019-02-20T09:03:35.878Z,4.90
2019-02-20T09:06:04.970Z,5.10
2019-02-20T09:08:33.835Z,4.80
2019-02-20T09:11:02.750Z,5.10
2019-02-20T09:13:32.097Z,5.40
2019-02-20T09:16:01.129Z,6.30
2019-02-20T09:18:30.303Z,8.30
2019-02-20T09:20:59.339Z,10.20
2019-02-20T09:23:28.304Z,11.10
2019-02-20T09:25:57.158Z,11.10
2019-02-20T09:28:26.039Z,11.70
2019-02-20T09:30:54.962Z,13.30
2019-02-20T09:33:23.800Z,14.10
2019-02-20T09:35:52.812Z,15.10
2019-02-20T09:38:21.639Z,15.70
2019-02-20T09:40:50.882Z,15.80
2019-02-20T09:43:19.922Z,16.80
2019-02-20T09:45:49.019Z,15.90
2019-02-20T09:48:18.132Z,16.30
2019-02-20T09:50:47.761Z,16.40
2019-02-20T09:53:16.762Z,17.10
2019-02-20T09:55:51.620Z,14.90
2019-02-20T09:58:16.802Z,15.90
2019-02-20T10:00:45.754Z,15.50
2019-02-20T10:03:14.712Z,16.00
2019-02-20T10:05:43.598Z,16.80
2019-02-20T10:08:12.545Z,17.10
2019-02-20T10:10:41.405Z,18.40
2019-02-20T10:13:11.597Z,18.60
2019-02-20T10:15:41.292Z,17.20
2019-02-20T10:18:12.126Z,16.60
2019-02-20T10:20:41.830Z,17.50
2019-02-20T10:23:11.607Z,16.30
2019-02-20T10:25:40.843Z,14.70
2019-02-20T10:28:19.723Z,15.70
2019-02-20T10:30:48.805Z,16.70
2019-02-20T10:33:17.717Z,17.50
2019-02-20T10:35:46.677Z,17.90
2019-02-20T10:38:15.636Z,17.90
2019-02-20T10:40:44.675Z,16.80
2019-02-20T10:43:13.669Z,15.40
2019-02-20T10:45:42.658Z,15.60
2019-02-20T10:48:11.647Z,13.60
2019-02-20T10:50:40.777Z,12.20
2019-02-20T10:53:09.877Z,12.30
2019-02-20T10:55:39.192Z,12.10
2019-02-20T10:58:08.181Z,11.80
2019-02-20T11:00:37.299Z,11.60
2019-02-20T11:03:06.342Z,11.70
2019-02-20T11:05:35.283Z,12.00
2019-02-20T11:08:04.291Z,12.00
2019-02-20T11:10:33.644Z,12.00
2019-02-20T11:13:02.507Z,11.90
2019-02-20T11:15:31.553Z,12.10
2019-02-20T11:18:00.523Z,11.90
2019-02-20T11:20:29.439Z,12.00
2019-02-20T11:23:01.966Z,12.30
2019-02-20T11:25:31.346Z,12.40
2019-02-20T11:28:00.390Z,12.90
2019-02-20T11:30:29.750Z,13.10
2019-02-20T11:32:59.000Z,13.00
2019-02-20T11:35:28.083Z,13.30
2019-02-20T11:37:56.962Z,13.40
2019-02-20T11:40:26.724Z,13.60
2019-02-20T11:42:55.904Z,13.40
2019-02-20T11:45:25.068Z,13.20
2019-02-20T11:47:54.040Z,13.40
2019-02-20T11:50:23.380Z,13.10
2019-02-20T11:52:52.795Z,12.80
2019-02-20T11:55:21.838Z,12.60
2019-02-20T11:57:50.767Z,12.60
2019-02-20T12:00:19.756Z,12.40
2019-02-20T12:02:49.006Z,12.30
2019-02-20T12:05:18.004Z,12.80
2019-02-20T12:07:46.993Z,13.00
2019-02-20T12:10:18.124Z,13.00
2019-02-20T12:12:47.423Z,12.80
2019-02-20T12:15:16.420Z,12.80
2019-02-20T12:17:45.349Z,12.30
2019-02-20T12:20:14.341Z,12.20
2019-02-20T12:22:43.434Z,11.70
2019-02-20T12:25:12.453Z,11.50
2019-02-20T12:32:14.429Z,11.60
2019-02-20T12:34:43.579Z,11.90
2019-02-20T12:37:15.038Z,12.20
2019-02-20T12:39:43.935Z,12.30
2019-02-20T12:42:13.069Z,12.00
2019-02-20T12:44:41.937Z,11.90
2019-02-20T12:47:10.838Z,12.00
2019-02-20T12:49:39.894Z,12.10
2019-02-20T12:52:08.707Z,12.20
2019-02-20T12:54:37.544Z,12.20
2019-02-20T12:57:06.450Z,12.20
2019-02-20T12:59:36.723Z,12.40
2019-02-20T13:02:06.104Z,12.20
2019-02-20T13:04:35.224Z,11.80
2019-02-20T13:07:04.047Z,11.90
2019-02-20T13:09:33.081Z,12.30
2019-02-20T13:12:01.961Z,12.60
2019-02-20T13:14:30.922Z,12.50
2019-02-20T13:16:59.730Z,12.30
2019-02-20T13:19:28.547Z,12.10
2019-02-20T13:21:57.355Z,12.10
2019-02-20T13:24:26.168Z,12.10
2019-02-20T13:26:54.974Z,11.90
2019-02-20T13:29:24.510Z,11.90
2019-02-20T13:31:53.307Z,11.90
2019-02-20T13:34:22.497Z,11.90
2019-02-20T13:36:51.315Z,11.80
2019-02-20T13:39:20.201Z,11.80
2019-02-20T13:41:49.332Z,11.90
2019-02-20T13:44:19.600Z,12.00
2019-02-20T13:46:48.729Z,11.90
2019-02-20T13:49:18.097Z,11.80
2019-02-20T13:51:47.186Z,11.70
2019-02-20T13:54:16.079Z,11.80
2019-02-20T13:56:45.056Z,11.70
2019-02-20T13:59:14.146Z,11.70
2019-02-20T14:01:43.137Z,11.60
2019-02-20T14:04:12.430Z,11.50
2019-02-20T14:06:41.292Z,11.60
2019-02-20T14:09:11.337Z,11.60
2019-02-20T14:11:40.166Z,11.60
2019-02-20T14:14:09.153Z,11.60
2019-02-20T14:16:38.305Z,11.60
2019-02-20T14:19:07.197Z,11.60
2019-02-20T14:21:37.094Z,11.50
2019-02-20T14:24:06.154Z,11.50
2019-02-20T14:26:35.078Z,11.50
2019-02-20T14:29:04.138Z,11.50
2019-02-20T14:31:33.351Z,11.60
2019-02-20T14:34:02.214Z,11.50
2019-02-20T14:36:31.532Z,11.40
2019-02-20T14:39:00.520Z,11.50
2019-02-20T14:41:29.619Z,11.50
2019-02-20T14:43:58.923Z,11.50
2019-02-20T14:46:28.028Z,11.60
2019-02-20T14:48:57.239Z,11.50
2019-02-20T14:51:27.590Z,11.60
2019-02-20T14:53:56.854Z,11.60
2019-02-20T14:56:25.845Z,11.70
2019-02-20T14:58:54.729Z,11.70
2019-02-20T15:01:23.884Z,11.80
2019-02-20T15:03:52.874Z,11.70
2019-02-20T15:06:22.147Z,11.60
2019-02-20T15:08:51.062Z,11.60
2019-02-20T15:11:19.988Z,11.60
2019-02-20T15:13:48.974Z,11.60
2019-02-20T15:16:17.990Z,11.60
2019-02-20T15:18:47.062Z,11.50
2019-02-20T15:21:15.934Z,11.50
2019-02-20T15:23:45.431Z,11.50
2019-02-20T15:26:14.425Z,11.60
2019-02-20T15:28:43.335Z,11.50
2019-02-20T15:31:12.330Z,11.40
2019-02-20T15:33:41.282Z,11.40
2019-02-20T15:36:10.285Z,11.40
2019-02-20T15:38:39.206Z,11.30
2019-02-20T15:41:08.177Z,11.20
2019-02-20T15:43:37.274Z,11.10
2019-02-20T15:46:06.470Z,11.00
2019-02-20T15:48:35.474Z,10.90
2019-02-20T15:51:04.475Z,10.90
2019-02-20T15:53:33.380Z,11.00
2019-02-20T15:56:02.806Z,10.90
2019-02-20T15:58:31.694Z,10.80
2019-02-20T16:01:00.901Z,10.60
2019-02-20T16:03:29.800Z,10.60
2019-02-20T16:05:58.638Z,10.50
2019-02-20T16:08:27.880Z,10.30
2019-02-20T16:10:56.810Z,10.20
2019-02-20T16:13:25.643Z,10.10
2019-02-20T16:15:54.481Z,10.00
2019-02-20T16:18:23.376Z,9.90
2019-02-20T16:20:52.367Z,9.80
2019-02-20T16:23:21.597Z,9.70
2019-02-20T16:25:50.624Z,9.60
2019-02-20T16:28:19.911Z,9.50
2019-02-20T16:30:49.769Z,9.40
2019-02-20T16:33:19.172Z,9.20
2019-02-20T16:35:48.556Z,9.10
2019-02-20T16:38:17.946Z,9.00
2019-02-20T16:40:47.230Z,8.80
2019-02-20T16:43:16.539Z,8.70
2019-02-20T16:45:45.523Z,8.50
2019-02-20T16:48:14.820Z,8.40
2019-02-20T16:50:43.809Z,8.20
2019-02-20T16:53:13.040Z,8.10
2019-02-20T16:55:42.466Z,8.00
2019-02-20T16:58:11.393Z,7.90
2019-02-20T17:00:41.505Z,7.70
2019-02-20T17:03:10.823Z,7.60
2019-02-20T17:05:39.779Z,7.40
2019-02-20T17:08:09.094Z,7.20
2019-02-20T17:10:38.186Z,7.10
2019-02-20T17:13:07.313Z,6.90
2019-02-20T17:15:36.370Z,5.60
2019-02-20T17:18:05.721Z,6.70
2019-02-20T17:20:35.084Z,6.50
2019-02-20T17:23:04.166Z,6.40
2019-02-20T17:25:33.061Z,6.40
2019-02-20T17:28:05.803Z,6.50
2019-02-20T17:30:32.698Z,6.50
2019-02-20T17:33:01.760Z,6.50
2019-02-20T17:35:31.112Z,6.50
2019-02-20T17:38:00.178Z,6.40
2019-02-20T17:40:29.130Z,6.30
2019-02-20T17:42:57.936Z,6.10
2019-02-20T17:45:27.322Z,6.00
2019-02-20T17:47:56.144Z,5.90
2019-02-20T17:50:25.035Z,5.90
2019-02-20T17:52:53.988Z,5.80
2019-02-20T17:55:22.873Z,5.70
2019-02-20T17:57:51.929Z,5.80
2019-02-20T18:00:23.566Z,5.80
2019-02-20T18:02:52.382Z,5.80
2019-02-20T18:05:21.247Z,5.80
2019-02-20T18:07:51.993Z,5.80
2019-02-20T18:10:20.580Z,5.70
2019-02-20T18:12:49.374Z,5.80
2019-02-20T18:15:18.241Z,5.80
2019-02-20T18:17:47.052Z,5.70
2019-02-20T18:20:15.934Z,5.70
2019-02-20T18:22:44.816Z,5.60
2019-02-20T18:27:55.657Z,5.50
2019-02-20T18:30:24.466Z,5.40
2019-02-20T18:32:53.285Z,5.30
2019-02-20T18:35:22.165Z,5.20
2019-02-20T18:37:50.974Z,5.10
2019-02-20T18:40:19.847Z,5.10
2019-02-20T18:42:48.751Z,5.00
2019-02-20T18:45:17.983Z,5.10
2019-02-20T18:47:46.761Z,5.00
2019-02-20T18:50:15.741Z,4.90
2019-02-20T18:52:44.678Z,4.80
2019-02-20T18:55:13.659Z,4.70
2019-02-20T18:57:42.509Z,4.70
2019-02-20T19:00:13.466Z,4.70
2019-02-20T19:02:42.328Z,4.60
2019-02-20T19:05:11.509Z,4.50
2019-02-20T19:07:40.622Z,4.40
2019-02-20T19:10:16.698Z,4.30
2019-02-20T19:12:57.693Z,4.20
2019-02-20T19:16:03.170Z,4.10
2019-02-20T19:19:21.176Z,4.00
2019-02-20T19:22:22.051Z,3.80
2019-02-20T19:25:31.939Z,3.70
2019-02-20T19:28:44.507Z,3.60
2019-02-20T19:31:56.954Z,3.50
2019-02-20T19:35:12.830Z,3.60
2019-02-20T19:38:40.836Z,3.60
2019-02-20T19:41:34.228Z,3.60
2019-02-20T19:44:10.713Z,3.60
2019-02-20T19:47:16.614Z,3.50
2019-02-20T19:50:11.727Z,3.50
2019-02-20T19:53:07.799Z,3.40
2019-02-20T19:56:01.777Z,3.30
2019-02-20T19:58:57.996Z,3.30
2019-02-20T20:02:02.325Z,3.30
2019-02-20T20:05:05.977Z,3.30
2019-02-20T20:08:05.523Z,3.40
2019-02-20T20:11:20.826Z,3.40
2019-02-20T20:14:07.843Z,3.30
2019-02-20T20:16:59.806Z,3.40
2019-02-20T20:19:49.897Z,3.30
2019-02-20T20:22:41.771Z,3.30
2019-02-20T20:25:48.502Z,3.30
2019-02-20T20:28:27.391Z,3.30
2019-02-20T20:31:39.447Z,3.30
2019-02-20T20:34:44.989Z,3.30
2019-02-20T20:37:35.731Z,3.30
2019-02-20T20:40:36.207Z,3.40
2019-02-20T20:43:37.660Z,3.40
2019-02-20T20:46:14.812Z,3.40
2019-02-20T20:49:18.237Z,3.30
2019-02-20T20:52:24.925Z,3.40
2019-02-20T20:55:52.029Z,3.30
2019-02-20T20:58:47.160Z,3.30
2019-02-20T21:01:45.974Z,3.30
2019-02-20T21:05:26.656Z,3.30
2019-02-20T21:08:20.097Z,3.30
2019-02-20T21:11:24.893Z,3.20
2019-02-20T21:14:28.087Z,3.20
2019-02-20T21:17:25.245Z,3.20
2019-02-20T21:20:41.061Z,3.20
2019-02-20T21:23:36.374Z,3.20
2019-02-20T21:26:29.417Z,3.10
2019-02-20T21:29:28.572Z,3.00
2019-02-20T21:32:07.964Z,2.90
2019-02-20T21:35:12.463Z,2.90
2019-02-20T21:38:34.889Z,2.80
2019-02-20T21:41:38.330Z,2.80
2019-02-20T21:44:39.269Z,2.80
2019-02-20T21:47:44.826Z,2.70
2019-02-20T21:50:38.798Z,2.70
2019-02-20T21:53:42.417Z,2.70
2019-02-20T21:56:54.706Z,2.60
2019-02-20T22:00:09.385Z,2.50
2019-02-20T22:03:31.512Z,2.40
2019-02-20T22:06:16.777Z,2.30
2019-02-20T22:09:05.715Z,2.20
2019-02-20T22:12:02.597Z,2.20
2019-02-20T22:15:11.391Z,2.20
2019-02-20T22:17:53.539Z,2.20
2019-02-20T22:20:50.102Z,2.00
2019-02-20T22:24:03.595Z,2.00
2019-02-20T22:27:11.654Z,1.80
2019-02-20T22:30:18.062Z,1.70
2019-02-20T22:33:18.449Z,1.60
2019-02-20T22:36:19.159Z,1.50
2019-02-20T22:39:09.436Z,1.50
2019-02-20T22:42:15.194Z,1.50
2019-02-20T22:45:24.054Z,1.40
2019-02-20T22:48:18.097Z,1.40
2019-02-20T22:51:21.299Z,1.40
2019-02-20T22:54:15.664Z,1.40
2019-02-20T22:57:17.177Z,1.50
2019-02-20T23:00:40.989Z,1.40
2019-02-20T23:03:47.461Z,1.40
2019-02-20T23:06:30.331Z,1.30
2019-02-20T23:09:39.145Z,1.20
2019-02-20T23:12:39.477Z,1.10
2019-02-20T23:15:08.425Z,1.10
2019-02-20T23:17:37.231Z,1.00
2019-02-20T23:20:06.353Z,1.00
2019-02-20T23:22:35.552Z,0.90
2019-02-20T23:25:04.868Z,0.90
2019-02-20T23:27:33.916Z,0.90
2019-02-20T23:30:12.437Z,0.90
2019-02-20T23:32:33.578Z,0.90
2019-02-20T23:35:02.389Z,0.90
2019-02-20T23:37:31.426Z,0.80
2019-02-20T23:40:00.319Z,0.80
2019-02-20T23:42:29.228Z,0.80
2019-02-20T23:44:58.089Z,0.70
2019-02-20T23:47:26.898Z,0.60
2019-02-20T23:49:56.572Z,0.60
2019-02-20T23:52:25.709Z,0.50
2019-02-20T23:54:54.521Z,0.50
2019-02-20T23:57:23.388Z,0.40
2019-02-20T23:59:52.762Z,0.40
